sensor_id;sensor_type;location;lat;lon;timestamp;pressure;altitude;pressure_sealevel;temperature;humidity
65872;BME280;52653;50.080;21.992;2023-04-15T00:01:24;98087.02;;;10.64;93.08
65872;BME280;52653;50.080;21.992;2023-04-15T00:04:17;98091.39;;;10.65;92.71
65872;BME280;52653;50.080;21.992;2023-04-15T00:07:12;98094.20;;;10.64;92.44
65872;BME280;52653;50.080;21.992;2023-04-15T00:09:49;98095.42;;;10.65;92.17
65872;BME280;52653;50.080;21.992;2023-04-15T00:13:03;98097.02;;;10.64;91.90
65872;BME280;52653;50.080;21.992;2023-04-15T00:15:56;98089.46;;;10.65;91.89
65872;BME280;52653;50.080;21.992;2023-04-15T00:18:49;98089.06;;;10.67;91.93
65872;BME280;52653;50.080;21.992;2023-04-15T00:21:42;98087.67;;;10.66;91.47
65872;BME280;52653;50.080;21.992;2023-04-15T00:24:26;98089.13;;;10.64;91.17
65872;BME280;52653;50.080;21.992;2023-04-15T00:27:19;98093.02;;;10.63;90.99
65872;BME280;52653;50.080;21.992;2023-04-15T00:30:07;98099.10;;;10.58;90.10
65872;BME280;52653;50.080;21.992;2023-04-15T00:32:52;98100.64;;;10.52;89.44
65872;BME280;52653;50.080;21.992;2023-04-15T00:35:25;98099.05;;;10.46;88.94
65872;BME280;52653;50.080;21.992;2023-04-15T00:38:11;98104.81;;;10.40;88.74
65872;BME280;52653;50.080;21.992;2023-04-15T00:41:04;98106.68;;;10.36;88.62
65872;BME280;52653;50.080;21.992;2023-04-15T00:43:58;98108.23;;;10.30;88.51
65872;BME280;52653;50.080;21.992;2023-04-15T00:46:44;98101.05;;;10.22;88.41
65872;BME280;52653;50.080;21.992;2023-04-15T00:49:18;98099.22;;;10.17;88.53
65872;BME280;52653;50.080;21.992;2023-04-15T00:52:11;98101.80;;;10.11;88.55
65872;BME280;52653;50.080;21.992;2023-04-15T00:54:56;98102.95;;;10.08;88.74
65872;BME280;52653;50.080;21.992;2023-04-15T00:57:49;98102.67;;;10.04;88.54
65872;BME280;52653;50.080;21.992;2023-04-15T01:00:43;98102.66;;;9.97;88.53
65872;BME280;52653;50.080;21.992;2023-04-15T01:03:29;98099.30;;;9.91;88.51
65872;BME280;52653;50.080;21.992;2023-04-15T01:06:23;98101.52;;;9.85;88.58
65872;BME280;52653;50.080;21.992;2023-04-15T01:08:59;98099.88;;;9.81;88.64
65872;BME280;52653;50.080;21.992;2023-04-15T01:11:54;98105.69;;;9.80;88.66
65872;BME280;52653;50.080;21.992;2023-04-15T01:14:47;98096.30;;;9.77;88.77
65872;BME280;52653;50.080;21.992;2023-04-15T01:17:40;98085.92;;;9.71;88.49
65872;BME280;52653;50.080;21.992;2023-04-15T01:20:34;98085.86;;;9.65;88.35
65872;BME280;52653;50.080;21.992;2023-04-15T01:23:16;98092.05;;;9.63;88.28
65872;BME280;52653;50.080;21.992;2023-04-15T01:26:10;98097.71;;;9.60;88.20
65872;BME280;52653;50.080;21.992;2023-04-15T01:29:03;98093.60;;;9.57;88.05
65872;BME280;52653;50.080;21.992;2023-04-15T01:31:57;98089.80;;;9.55;87.99
65872;BME280;52653;50.080;21.992;2023-04-15T01:34:50;98093.14;;;9.53;87.88
65872;BME280;52653;50.080;21.992;2023-04-15T01:37:26;98092.15;;;9.50;87.78
65872;BME280;52653;50.080;21.992;2023-04-15T01:40:19;98091.32;;;9.48;87.76
65872;BME280;52653;50.080;21.992;2023-04-15T01:43:14;98091.04;;;9.45;87.81
65872;BME280;52653;50.080;21.992;2023-04-15T01:46:07;98093.20;;;9.42;87.82
65872;BME280;52653;50.080;21.992;2023-04-15T01:49:00;98097.61;;;9.40;87.83
65872;BME280;52653;50.080;21.992;2023-04-15T01:55:19;98103.27;;;9.37;87.73
65872;BME280;52653;50.080;21.992;2023-04-15T01:58:01;98103.33;;;9.35;87.63
65872;BME280;52653;50.080;21.992;2023-04-15T02:00:47;98105.47;;;9.33;87.64
65872;BME280;52653;50.080;21.992;2023-04-15T02:03:40;98109.55;;;9.30;87.59
65872;BME280;52653;50.080;21.992;2023-04-15T02:06:33;98113.61;;;9.29;87.56
65872;BME280;52653;50.080;21.992;2023-04-15T02:09:26;98113.29;;;9.27;87.84
65872;BME280;52653;50.080;21.992;2023-04-15T02:12:20;98109.99;;;9.25;87.90
65872;BME280;52653;50.080;21.992;2023-04-15T02:15:14;98109.00;;;9.23;87.91
65872;BME280;52653;50.080;21.992;2023-04-15T02:18:09;98110.59;;;9.22;87.97
65872;BME280;52653;50.080;21.992;2023-04-15T02:21:03;98110.44;;;9.21;87.99
65872;BME280;52653;50.080;21.992;2023-04-15T02:23:57;98107.86;;;9.19;87.90
65872;BME280;52653;50.080;21.992;2023-04-15T02:26:43;98103.69;;;9.18;87.81
65872;BME280;52653;50.080;21.992;2023-04-15T02:29:20;98100.89;;;9.18;87.84
65872;BME280;52653;50.080;21.992;2023-04-15T02:32:04;98099.48;;;9.18;87.65
65872;BME280;52653;50.080;21.992;2023-04-15T02:34:49;98092.30;;;9.18;87.70
65872;BME280;52653;50.080;21.992;2023-04-15T02:37:32;98093.67;;;9.20;87.63
65872;BME280;52653;50.080;21.992;2023-04-15T02:40:27;98097.00;;;9.20;87.20
65872;BME280;52653;50.080;21.992;2023-04-15T02:43:20;98097.55;;;9.18;87.07
65872;BME280;52653;50.080;21.992;2023-04-15T02:46:12;98098.80;;;9.18;87.22
65872;BME280;52653;50.080;21.992;2023-04-15T02:49:05;98102.11;;;9.18;87.14
65872;BME280;52653;50.080;21.992;2023-04-15T02:51:59;98100.90;;;9.17;87.06
65872;BME280;52653;50.080;21.992;2023-04-15T02:54:41;98096.20;;;9.16;87.00
65872;BME280;52653;50.080;21.992;2023-04-15T02:57:34;98087.99;;;9.15;86.81
65872;BME280;52653;50.080;21.992;2023-04-15T03:00:29;98093.97;;;9.13;86.70
65872;BME280;52653;50.080;21.992;2023-04-15T03:03:08;98098.05;;;9.09;86.63
65872;BME280;52653;50.080;21.992;2023-04-15T03:06:02;98112.45;;;9.08;86.66
65872;BME280;52653;50.080;21.992;2023-04-15T03:08:47;98114.24;;;9.05;86.52
65872;BME280;52653;50.080;21.992;2023-04-15T03:11:40;98122.16;;;9.03;86.33
65872;BME280;52653;50.080;21.992;2023-04-15T03:14:33;98124.27;;;9.02;86.32
65872;BME280;52653;50.080;21.992;2023-04-15T03:17:26;98127.78;;;9.01;86.12
65872;BME280;52653;50.080;21.992;2023-04-15T03:20:19;98129.88;;;9.01;86.05
65872;BME280;52653;50.080;21.992;2023-04-15T03:23:11;98132.70;;;9.00;85.88
65872;BME280;52653;50.080;21.992;2023-04-15T03:26:04;98136.05;;;8.98;85.78
65872;BME280;52653;50.080;21.992;2023-04-15T03:28:57;98134.86;;;8.97;85.75
65872;BME280;52653;50.080;21.992;2023-04-15T03:31:50;98137.66;;;8.96;85.82
65872;BME280;52653;50.080;21.992;2023-04-15T03:34:43;98145.23;;;8.95;85.77
65872;BME280;52653;50.080;21.992;2023-04-15T03:37:36;98146.87;;;8.92;85.76
65872;BME280;52653;50.080;21.992;2023-04-15T03:40:29;98148.98;;;8.89;85.78
65872;BME280;52653;50.080;21.992;2023-04-15T03:43:21;98156.20;;;8.87;85.84
65872;BME280;52653;50.080;21.992;2023-04-15T03:46:14;98167.44;;;8.84;85.79
65872;BME280;52653;50.080;21.992;2023-04-15T03:49:08;98166.06;;;8.83;85.72
65872;BME280;52653;50.080;21.992;2023-04-15T03:51:53;98168.52;;;8.82;85.61
65872;BME280;52653;50.080;21.992;2023-04-15T03:54:48;98169.92;;;8.82;85.59
65872;BME280;52653;50.080;21.992;2023-04-15T03:57:34;98160.66;;;8.82;85.58
65872;BME280;52653;50.080;21.992;2023-04-15T04:00:19;98157.48;;;8.83;85.50
65872;BME280;52653;50.080;21.992;2023-04-15T04:03:03;98152.73;;;8.85;85.32
65872;BME280;52653;50.080;21.992;2023-04-15T04:05:56;98153.21;;;8.87;85.25
65872;BME280;52653;50.080;21.992;2023-04-15T04:08:49;98166.31;;;8.88;85.23
65872;BME280;52653;50.080;21.992;2023-04-15T04:11:42;98163.70;;;8.87;85.10
65872;BME280;52653;50.080;21.992;2023-04-15T04:14:35;98154.79;;;8.88;85.08
65872;BME280;52653;50.080;21.992;2023-04-15T04:17:28;98144.13;;;8.87;84.82
65872;BME280;52653;50.080;21.992;2023-04-15T04:20:21;98136.98;;;8.85;84.56
65872;BME280;52653;50.080;21.992;2023-04-15T04:23:06;98147.64;;;8.85;84.54
65872;BME280;52653;50.080;21.992;2023-04-15T04:25:58;98162.29;;;8.89;84.72
65872;BME280;52653;50.080;21.992;2023-04-15T04:28:50;98174.88;;;8.90;84.68
65872;BME280;52653;50.080;21.992;2023-04-15T04:31:37;98186.63;;;8.86;84.64
65872;BME280;52653;50.080;21.992;2023-04-15T04:34:23;98187.40;;;8.82;84.25
65872;BME280;52653;50.080;21.992;2023-04-15T04:37:17;98180.80;;;8.80;84.22
65872;BME280;52653;50.080;21.992;2023-04-15T04:40:11;98178.35;;;8.80;84.31
65872;BME280;52653;50.080;21.992;2023-04-15T04:43:04;98174.82;;;8.82;84.15
65872;BME280;52653;50.080;21.992;2023-04-15T04:45:38;98171.94;;;8.87;84.21
65872;BME280;52653;50.080;21.992;2023-04-15T04:48:31;98175.36;;;8.92;84.07
65872;BME280;52653;50.080;21.992;2023-04-15T04:51:24;98180.64;;;8.98;84.14
65872;BME280;52653;50.080;21.992;2023-04-15T04:54:18;98184.17;;;9.07;84.05
65872;BME280;52653;50.080;21.992;2023-04-15T04:57:07;98186.64;;;9.16;83.89
65872;BME280;52653;50.080;21.992;2023-04-15T04:59:40;98181.09;;;9.22;83.61
65872;BME280;52653;50.080;21.992;2023-04-15T05:02:33;98184.49;;;9.27;82.91
65872;BME280;52653;50.080;21.992;2023-04-15T05:05:26;98187.58;;;9.31;82.75
65872;BME280;52653;50.080;21.992;2023-04-15T05:08:19;98193.20;;;9.38;82.74
65872;BME280;52653;50.080;21.992;2023-04-15T05:11:13;98196.40;;;9.45;82.44
65872;BME280;52653;50.080;21.992;2023-04-15T05:14:06;98201.34;;;9.52;82.25
65872;BME280;52653;50.080;21.992;2023-04-15T05:16:59;98214.48;;;9.60;81.99
65872;BME280;52653;50.080;21.992;2023-04-15T05:19:52;98213.78;;;9.69;81.66
65872;BME280;52653;50.080;21.992;2023-04-15T05:22:45;98213.41;;;9.78;81.49
65872;BME280;52653;50.080;21.992;2023-04-15T05:25:29;98225.44;;;9.89;81.44
65872;BME280;52653;50.080;21.992;2023-04-15T05:28:22;98228.90;;;9.99;81.00
65872;BME280;52653;50.080;21.992;2023-04-15T05:31:05;98221.57;;;10.07;80.39
65872;BME280;52653;50.080;21.992;2023-04-15T05:33:47;98218.55;;;10.17;79.92
65872;BME280;52653;50.080;21.992;2023-04-15T05:36:23;98211.73;;;10.33;79.67
65872;BME280;52653;50.080;21.992;2023-04-15T05:39:16;98212.66;;;10.46;78.84
65872;BME280;52653;50.080;21.992;2023-04-15T05:42:09;98211.83;;;10.58;78.73
65872;BME280;52653;50.080;21.992;2023-04-15T05:45:02;98216.65;;;10.70;78.15
65872;BME280;52653;50.080;21.992;2023-04-15T05:47:49;98219.30;;;10.76;77.80
65872;BME280;52653;50.080;21.992;2023-04-15T05:50:29;98213.95;;;10.86;77.65
65872;BME280;52653;50.080;21.992;2023-04-15T05:53:13;98215.38;;;10.93;76.20
65872;BME280;52653;50.080;21.992;2023-04-15T05:55:46;98221.05;;;10.98;76.23
65872;BME280;52653;50.080;21.992;2023-04-15T05:58:21;98219.60;;;11.13;75.33
65872;BME280;52653;50.080;21.992;2023-04-15T06:00:56;98223.08;;;11.27;74.34
65872;BME280;52653;50.080;21.992;2023-04-15T06:03:30;98216.65;;;11.45;74.35
65872;BME280;52653;50.080;21.992;2023-04-15T06:06:04;98222.60;;;11.65;74.12
65872;BME280;52653;50.080;21.992;2023-04-15T06:08:37;98217.67;;;11.85;73.50
65872;BME280;52653;50.080;21.992;2023-04-15T06:11:12;98216.83;;;12.01;72.76
65872;BME280;52653;50.080;21.992;2023-04-15T06:13:49;98216.17;;;12.12;71.58
65872;BME280;52653;50.080;21.992;2023-04-15T06:16:31;98219.38;;;12.16;70.77
65872;BME280;52653;50.080;21.992;2023-04-15T06:19:03;98225.12;;;12.18;70.61
65872;BME280;52653;50.080;21.992;2023-04-15T06:21:47;98224.52;;;12.21;69.99
65872;BME280;52653;50.080;21.992;2023-04-15T06:24:20;98223.58;;;12.29;70.00
65872;BME280;52653;50.080;21.992;2023-04-15T06:26:58;98219.40;;;12.39;69.33
65872;BME280;52653;50.080;21.992;2023-04-15T06:29:32;98215.19;;;12.50;68.95
65872;BME280;52653;50.080;21.992;2023-04-15T06:32:05;98213.94;;;12.61;68.99
65872;BME280;52653;50.080;21.992;2023-04-15T06:34:41;98212.52;;;12.67;68.44
65872;BME280;52653;50.080;21.992;2023-04-15T06:37:23;98212.35;;;12.73;68.12
65872;BME280;52653;50.080;21.992;2023-04-15T06:39:59;98209.84;;;12.74;67.94
65872;BME280;52653;50.080;21.992;2023-04-15T06:42:43;98213.63;;;12.76;68.11
65872;BME280;52653;50.080;21.992;2023-04-15T06:45:19;98218.89;;;12.82;67.98
65872;BME280;52653;50.080;21.992;2023-04-15T06:47:52;98221.99;;;12.89;67.67
65872;BME280;52653;50.080;21.992;2023-04-15T06:50:29;98227.54;;;12.92;67.28
65872;BME280;52653;50.080;21.992;2023-04-15T06:53:03;98223.88;;;12.97;67.24
65872;BME280;52653;50.080;21.992;2023-04-15T06:55:40;98223.14;;;12.98;67.28
65872;BME280;52653;50.080;21.992;2023-04-15T06:58:12;98224.13;;;13.00;67.25
65872;BME280;52653;50.080;21.992;2023-04-15T07:00:45;98226.88;;;13.02;67.57
65872;BME280;52653;50.080;21.992;2023-04-15T07:03:19;98233.53;;;13.03;67.12
65872;BME280;52653;50.080;21.992;2023-04-15T07:05:55;98238.88;;;13.06;67.23
65872;BME280;52653;50.080;21.992;2023-04-15T07:08:27;98242.84;;;13.09;66.68
65872;BME280;52653;50.080;21.992;2023-04-15T07:11:00;98248.28;;;13.14;66.47
65872;BME280;52653;50.080;21.992;2023-04-15T07:13:53;98250.41;;;13.20;66.31
65872;BME280;52653;50.080;21.992;2023-04-15T07:16:29;98251.17;;;13.34;66.43
65872;BME280;52653;50.080;21.992;2023-04-15T07:19:12;98255.30;;;13.52;66.42
65872;BME280;52653;50.080;21.992;2023-04-15T07:21:56;98256.71;;;13.67;65.63
65872;BME280;52653;50.080;21.992;2023-04-15T07:24:29;98256.88;;;13.82;65.19
65872;BME280;52653;50.080;21.992;2023-04-15T07:27:02;98257.17;;;14.02;65.12
65872;BME280;52653;50.080;21.992;2023-04-15T07:29:35;98259.81;;;14.22;64.68
65872;BME280;52653;50.080;21.992;2023-04-15T07:32:12;98259.64;;;14.27;62.63
65872;BME280;52653;50.080;21.992;2023-04-15T07:34:50;98257.39;;;14.16;62.78
65872;BME280;52653;50.080;21.992;2023-04-15T07:37:23;98251.88;;;14.03;62.77
65872;BME280;52653;50.080;21.992;2023-04-15T07:39:55;98255.33;;;13.91;62.66
65872;BME280;52653;50.080;21.992;2023-04-15T07:42:39;98259.32;;;13.83;62.64
65872;BME280;52653;50.080;21.992;2023-04-15T07:45:15;98259.30;;;13.73;62.76
65872;BME280;52653;50.080;21.992;2023-04-15T07:47:48;98263.40;;;13.72;63.42
65872;BME280;52653;50.080;21.992;2023-04-15T07:50:20;98260.90;;;13.73;63.78
65872;BME280;52653;50.080;21.992;2023-04-15T07:52:54;98265.88;;;13.77;63.59
65872;BME280;52653;50.080;21.992;2023-04-15T07:55:27;98267.77;;;13.78;62.98
65872;BME280;52653;50.080;21.992;2023-04-15T07:58:00;98273.48;;;13.81;63.39
65872;BME280;52653;50.080;21.992;2023-04-15T08:00:33;98272.92;;;13.87;63.15
65872;BME280;52653;50.080;21.992;2023-04-15T08:03:06;98273.27;;;13.92;62.33
65872;BME280;52653;50.080;21.992;2023-04-15T08:05:39;98271.73;;;13.91;62.21
65872;BME280;52653;50.080;21.992;2023-04-15T08:08:15;98269.27;;;13.85;62.15
65872;BME280;52653;50.080;21.992;2023-04-15T08:10:48;98274.44;;;13.74;62.42
65872;BME280;52653;50.080;21.992;2023-04-15T08:13:23;98279.04;;;13.68;62.81
65872;BME280;52653;50.080;21.992;2023-04-15T08:16:15;98275.33;;;13.69;63.01
65872;BME280;52653;50.080;21.992;2023-04-15T08:18:53;98275.11;;;13.75;63.00
65872;BME280;52653;50.080;21.992;2023-04-15T08:21:26;98277.80;;;13.83;62.60
65872;BME280;52653;50.080;21.992;2023-04-15T08:24:00;98278.17;;;13.88;62.77
65872;BME280;52653;50.080;21.992;2023-04-15T08:26:34;98275.34;;;13.89;62.07
65872;BME280;52653;50.080;21.992;2023-04-15T08:29:08;98284.00;;;13.82;62.03
65872;BME280;52653;50.080;21.992;2023-04-15T08:31:40;98290.99;;;13.84;62.30
65872;BME280;52653;50.080;21.992;2023-04-15T08:34:13;98290.79;;;13.90;62.06
65872;BME280;52653;50.080;21.992;2023-04-15T08:36:46;98291.24;;;13.92;61.30
65872;BME280;52653;50.080;21.992;2023-04-15T08:39:21;98289.94;;;13.93;60.80
65872;BME280;52653;50.080;21.992;2023-04-15T08:41:58;98290.00;;;13.97;61.08
65872;BME280;52653;50.080;21.992;2023-04-15T08:44:34;98284.89;;;14.11;61.39
65872;BME280;52653;50.080;21.992;2023-04-15T08:47:09;98286.47;;;14.45;60.89
65872;BME280;52653;50.080;21.992;2023-04-15T08:49:44;98282.48;;;14.80;60.54
65872;BME280;52653;50.080;21.992;2023-04-15T08:52:38;98281.48;;;15.18;59.75
65872;BME280;52653;50.080;21.992;2023-04-15T08:55:12;98279.48;;;15.44;58.21
65872;BME280;52653;50.080;21.992;2023-04-15T08:57:49;98272.95;;;15.73;57.92
65872;BME280;52653;50.080;21.992;2023-04-15T09:00:23;98279.77;;;16.03;57.23
65872;BME280;52653;50.080;21.992;2023-04-15T09:02:56;98281.16;;;16.27;56.88
65872;BME280;52653;50.080;21.992;2023-04-15T09:05:32;98283.59;;;16.48;56.76
65872;BME280;52653;50.080;21.992;2023-04-15T09:08:06;98283.23;;;16.63;56.05
65872;BME280;52653;50.080;21.992;2023-04-15T09:10:39;98281.86;;;16.73;55.48
65872;BME280;52653;50.080;21.992;2023-04-15T09:13:12;98287.39;;;16.73;54.44
65872;BME280;52653;50.080;21.992;2023-04-15T09:15:45;98285.67;;;16.68;54.22
65872;BME280;52653;50.080;21.992;2023-04-15T09:18:29;98290.56;;;16.70;54.48
65872;BME280;52653;50.080;21.992;2023-04-15T09:21:09;98287.50;;;16.62;54.20
65872;BME280;52653;50.080;21.992;2023-04-15T09:23:55;98290.80;;;16.48;54.17
65872;BME280;52653;50.080;21.992;2023-04-15T09:26:36;98291.63;;;16.42;54.11
65872;BME280;52653;50.080;21.992;2023-04-15T09:29:19;98294.31;;;16.42;53.73
65872;BME280;52653;50.080;21.992;2023-04-15T09:31:52;98294.56;;;16.51;54.26
65872;BME280;52653;50.080;21.992;2023-04-15T09:34:35;98293.02;;;16.74;54.41
65872;BME280;52653;50.080;21.992;2023-04-15T09:37:11;98297.41;;;17.00;53.95
65872;BME280;52653;50.080;21.992;2023-04-15T09:40:02;98296.84;;;17.30;53.60
65872;BME280;52653;50.080;21.992;2023-04-15T09:42:35;98295.21;;;17.59;53.54
65872;BME280;52653;50.080;21.992;2023-04-15T09:45:12;98289.67;;;17.91;52.17
65872;BME280;52653;50.080;21.992;2023-04-15T09:47:46;98290.30;;;18.00;50.17
65872;BME280;52653;50.080;21.992;2023-04-15T09:50:30;98290.74;;;17.98;50.67
65872;BME280;52653;50.080;21.992;2023-04-15T09:53:03;98291.34;;;18.00;51.16
65872;BME280;52653;50.080;21.992;2023-04-15T09:55:48;98293.27;;;17.94;49.78
65872;BME280;52653;50.080;21.992;2023-04-15T09:58:24;98292.67;;;17.75;50.03
65872;BME280;52653;50.080;21.992;2023-04-15T10:00:58;98293.15;;;17.54;49.84
65872;BME280;52653;50.080;21.992;2023-04-15T10:03:32;98292.02;;;17.45;50.96
65872;BME280;52653;50.080;21.992;2023-04-15T10:06:07;98293.73;;;17.46;51.23
65872;BME280;52653;50.080;21.992;2023-04-15T10:08:51;98291.16;;;17.41;51.14
65872;BME280;52653;50.080;21.992;2023-04-15T10:11:28;98291.85;;;17.30;51.54
65872;BME280;52653;50.080;21.992;2023-04-15T10:14:02;98290.80;;;17.31;52.33
65872;BME280;52653;50.080;21.992;2023-04-15T10:16:38;98292.91;;;17.31;51.79
65872;BME280;52653;50.080;21.992;2023-04-15T10:19:19;98288.43;;;17.46;51.90
65872;BME280;52653;50.080;21.992;2023-04-15T10:21:54;98283.89;;;17.62;50.82
65872;BME280;52653;50.080;21.992;2023-04-15T10:24:27;98283.14;;;17.77;50.63
65872;BME280;52653;50.080;21.992;2023-04-15T10:27:03;98282.90;;;17.99;50.52
65872;BME280;52653;50.080;21.992;2023-04-15T10:29:39;98273.72;;;18.14;49.26
65872;BME280;52653;50.080;21.992;2023-04-15T10:32:12;98269.98;;;18.21;48.55
65872;BME280;52653;50.080;21.992;2023-04-15T10:34:49;98263.41;;;18.51;47.78
65872;BME280;52653;50.080;21.992;2023-04-15T10:37:34;98259.79;;;18.78;47.56
65872;BME280;52653;50.080;21.992;2023-04-15T10:40:27;98260.46;;;18.97;48.59
65872;BME280;52653;50.080;21.992;2023-04-15T10:43:02;98258.96;;;19.11;48.71
65872;BME280;52653;50.080;21.992;2023-04-15T10:45:45;98257.02;;;18.98;46.67
65872;BME280;52653;50.080;21.992;2023-04-15T10:48:19;98256.40;;;18.75;47.11
65872;BME280;52653;50.080;21.992;2023-04-15T10:50:58;98263.94;;;18.71;48.19
65872;BME280;52653;50.080;21.992;2023-04-15T10:53:56;98262.32;;;18.61;47.47
65872;BME280;52653;50.080;21.992;2023-04-15T10:56:42;98264.23;;;18.55;47.18
65872;BME280;52653;50.080;21.992;2023-04-15T10:59:29;98257.46;;;18.65;46.73
65872;BME280;52653;50.080;21.992;2023-04-15T11:02:14;98253.18;;;18.75;44.86
65872;BME280;52653;50.080;21.992;2023-04-15T11:04:58;98254.39;;;18.66;44.65
65872;BME280;52653;50.080;21.992;2023-04-15T11:07:54;98253.08;;;18.61;46.04
65872;BME280;52653;50.080;21.992;2023-04-15T11:10:55;98248.43;;;18.32;45.66
65872;BME280;52653;50.080;21.992;2023-04-15T11:13:50;98249.02;;;18.02;46.36
65872;BME280;52653;50.080;21.992;2023-04-15T11:16:45;98252.95;;;17.81;45.58
65872;BME280;52653;50.080;21.992;2023-04-15T11:19:36;98256.96;;;17.68;46.32
65872;BME280;52653;50.080;21.992;2023-04-15T11:22:18;98256.31;;;17.50;47.18
65872;BME280;52653;50.080;21.992;2023-04-15T11:25:03;98261.09;;;17.36;46.97
65872;BME280;52653;50.080;21.992;2023-04-15T11:27:36;98260.24;;;17.38;47.55
65872;BME280;52653;50.080;21.992;2023-04-15T11:30:22;98261.35;;;17.59;47.17
65872;BME280;52653;50.080;21.992;2023-04-15T11:32:57;98260.10;;;17.97;47.76
65872;BME280;52653;50.080;21.992;2023-04-15T11:35:32;98258.30;;;18.43;47.38
65872;BME280;52653;50.080;21.992;2023-04-15T11:38:07;98261.27;;;18.89;46.88
65872;BME280;52653;50.080;21.992;2023-04-15T11:40:41;98266.52;;;19.19;44.81
65872;BME280;52653;50.080;21.992;2023-04-15T11:43:18;98266.95;;;19.14;43.90
65872;BME280;52653;50.080;21.992;2023-04-15T11:46:03;98266.31;;;19.10;44.73
65872;BME280;52653;50.080;21.992;2023-04-15T11:48:40;98270.00;;;19.23;46.24
65872;BME280;52653;50.080;21.992;2023-04-15T11:51:14;98267.75;;;19.31;44.45
65872;BME280;52653;50.080;21.992;2023-04-15T11:53:48;98273.99;;;19.25;43.97
65872;BME280;52653;50.080;21.992;2023-04-15T11:56:22;98280.46;;;19.21;46.00
65872;BME280;52653;50.080;21.992;2023-04-15T11:59:06;98287.92;;;19.05;45.98
65872;BME280;52653;50.080;21.992;2023-04-15T12:01:39;98293.01;;;18.81;46.38
65872;BME280;52653;50.080;21.992;2023-04-15T12:04:35;98294.90;;;18.56;47.07
65872;BME280;52653;50.080;21.992;2023-04-15T12:07:11;98292.22;;;18.30;47.86
65872;BME280;52653;50.080;21.992;2023-04-15T12:09:58;98293.70;;;18.02;47.22
65872;BME280;52653;50.080;21.992;2023-04-15T12:12:42;98291.30;;;17.87;47.91
65872;BME280;52653;50.080;21.992;2023-04-15T12:15:15;98282.80;;;17.90;48.67
65872;BME280;52653;50.080;21.992;2023-04-15T12:17:48;98276.85;;;17.99;48.74
65872;BME280;52653;50.080;21.992;2023-04-15T12:20:27;98278.48;;;17.85;49.21
65872;BME280;52653;50.080;21.992;2023-04-15T12:23:07;98284.52;;;17.67;49.37
65872;BME280;52653;50.080;21.992;2023-04-15T12:25:39;98294.32;;;17.45;49.03
65872;BME280;52653;50.080;21.992;2023-04-15T12:28:13;98298.40;;;17.20;49.41
65872;BME280;52653;50.080;21.992;2023-04-15T12:30:51;98303.29;;;16.93;49.88
65872;BME280;52653;50.080;21.992;2023-04-15T12:33:34;98314.84;;;16.65;53.52
65872;BME280;52653;50.080;21.992;2023-04-15T12:36:10;98325.61;;;16.38;55.72
65872;BME280;52653;50.080;21.992;2023-04-15T12:38:42;98338.89;;;16.14;56.25
65872;BME280;52653;50.080;21.992;2023-04-15T12:41:23;98345.53;;;15.92;57.16
65872;BME280;52653;50.080;21.992;2023-04-15T12:43:56;98348.00;;;15.59;57.26
65872;BME280;52653;50.080;21.992;2023-04-15T12:46:31;98349.54;;;15.07;58.49
65872;BME280;52653;50.080;21.992;2023-04-15T12:49:12;98364.52;;;14.53;59.52
65872;BME280;52653;50.080;21.992;2023-04-15T12:51:54;98363.17;;;14.12;60.11
65872;BME280;52653;50.080;21.992;2023-04-15T12:54:38;98359.02;;;13.84;59.96
65872;BME280;52653;50.080;21.992;2023-04-15T12:57:11;98357.73;;;13.65;60.26
65872;BME280;52653;50.080;21.992;2023-04-15T12:59:44;98355.41;;;13.56;60.58
65872;BME280;52653;50.080;21.992;2023-04-15T13:02:19;98355.00;;;13.52;59.19
65872;BME280;52653;50.080;21.992;2023-04-15T13:04:56;98350.79;;;13.52;60.35
65872;BME280;52653;50.080;21.992;2023-04-15T13:07:33;98354.26;;;13.49;61.58
65872;BME280;52653;50.080;21.992;2023-04-15T13:10:09;98356.65;;;13.40;63.57
65872;BME280;52653;50.080;21.992;2023-04-15T13:12:41;98362.09;;;13.30;65.04
65872;BME280;52653;50.080;21.992;2023-04-15T13:15:16;98369.22;;;13.15;65.87
65872;BME280;52653;50.080;21.992;2023-04-15T13:17:50;98373.16;;;12.96;66.90
65872;BME280;52653;50.080;21.992;2023-04-15T13:20:24;98384.55;;;12.75;68.11
65872;BME280;52653;50.080;21.992;2023-04-15T13:22:58;98398.06;;;12.57;68.37
65872;BME280;52653;50.080;21.992;2023-04-15T13:25:31;98419.23;;;12.36;69.05
65872;BME280;52653;50.080;21.992;2023-04-15T13:28:04;98434.33;;;12.12;69.05
65872;BME280;52653;50.080;21.992;2023-04-15T13:30:39;98424.67;;;11.83;68.79
65872;BME280;52653;50.080;21.992;2023-04-15T13:33:12;98412.94;;;11.67;69.76
65872;BME280;52653;50.080;21.992;2023-04-15T13:35:47;98410.70;;;11.58;69.72
65872;BME280;52653;50.080;21.992;2023-04-15T13:38:20;98417.39;;;11.50;68.92
65872;BME280;52653;50.080;21.992;2023-04-15T13:40:55;98420.41;;;11.57;70.02
65872;BME280;52653;50.080;21.992;2023-04-15T13:43:27;98418.23;;;11.74;70.31
65872;BME280;52653;50.080;21.992;2023-04-15T13:46:01;98419.92;;;12.04;70.48
65872;BME280;52653;50.080;21.992;2023-04-15T13:48:34;98419.85;;;12.40;70.03
65872;BME280;52653;50.080;21.992;2023-04-15T13:51:07;98416.25;;;12.79;70.45
65872;BME280;52653;50.080;21.992;2023-04-15T13:53:40;98413.09;;;13.20;69.75
65872;BME280;52653;50.080;21.992;2023-04-15T13:56:13;98411.60;;;13.51;69.01
65872;BME280;52653;50.080;21.992;2023-04-15T13:58:46;98420.36;;;13.68;67.62
65872;BME280;52653;50.080;21.992;2023-04-15T14:01:19;98428.20;;;13.71;67.41
65872;BME280;52653;50.080;21.992;2023-04-15T14:03:52;98438.31;;;13.75;67.42
65872;BME280;52653;50.080;21.992;2023-04-15T14:06:25;98441.83;;;13.70;67.23
65872;BME280;52653;50.080;21.992;2023-04-15T14:08:58;98443.41;;;13.48;66.97
65872;BME280;52653;50.080;21.992;2023-04-15T14:11:31;98440.45;;;13.24;67.25
65872;BME280;52653;50.080;21.992;2023-04-15T14:14:09;98441.70;;;13.05;67.82